Monday, December 18, 2017, 9:32 AM EST
Back to Local

KPWM, Portland International Jetport

Location: Portland, ME, United States Lat: 43.65
Local Time: 9:32 AM EST (14:32 GMT) Lon: -70.3
Time Zone: US/Eastern Elev: 75 ft

Show me the last for .
Show Decoded

2017-12-18 08:51 METAR KPWM 181351Z 27005KT 6SM -SN BKN048 OVC060 M09/M14 A3018 RMK AO2 SNB41
                 SLP221 P0000 T10891139 =
2017-12-18 07:51 METAR KPWM 181251Z VRB04KT 10SM FEW035 OVC110 M10/M14 A3018 RMK AO2 SLP222
                 T11001144 =
2017-12-18 06:51 METAR KPWM 181151Z VRB03KT 10SM BKN120 OVC150 M11/M15 A3019 RMK AO2 SLP225
                 T11061150 11106 21133 56014 =
2017-12-18 05:51 METAR KPWM 181051Z 34003KT 10SM OVC150 M11/M15 A3020 RMK AO2 SLP229 T11111150 =
2017-12-18 04:51 METAR KPWM 180951Z VRB03KT 10SM OVC150 M12/M14 A3021 RMK AO2 SLP232 T11221144 =
2017-12-18 03:51 METAR KPWM 180851Z AUTO 28003KT 10SM CLR M13/M16 A3023 RMK AO2 SLP238 T11281156
                 58002 =
2017-12-18 02:51 METAR KPWM 180751Z AUTO 28005KT 10SM CLR M13/M16 A3024 RMK AO2 SLP241 T11331156
                 =
2017-12-18 01:51 METAR KPWM 180651Z AUTO 31003KT 10SM CLR M13/M16 A3025 RMK AO2 SLP245 T11281156
                 =
2017-12-18 00:51 METAR KPWM 180551Z AUTO 34005KT 10SM CLR M13/M16 A3024 RMK AO2 SLP241 T11281156
                 11078 21133 56015 =
2017-12-17 23:51 METAR KPWM 180451Z 29004KT 10SM CLR M12/M16 A3025 RMK AO2 SLP246 LAST T11171156
                 410331150 =
2017-12-17 22:51 METAR KPWM 180351Z VRB03KT 10SM CLR M10/M14 A3026 RMK AO2 SLP249 T11001144 =
2017-12-17 21:51 METAR KPWM 180251Z VRB03KT 10SM CLR M11/M16 A3028 RMK AO2 SLP256 T11061161 51007
                 =
2017-12-17 20:51 METAR KPWM 180151Z VRB04KT 10SM CLR M09/M16 A3028 RMK AO2 SLP255 T10941156 =
2017-12-17 19:51 METAR KPWM 180051Z 12004KT 10SM CLR M08/M16 A3028 RMK AO2 SLP256 T10831161 =
2017-12-17 18:51 METAR KPWM 172351Z VRB05KT 10SM CLR M08/M16 A3026 RMK AO2 SLP248 T10781161 11033
                 21078 51016 =
2017-12-17 17:51 METAR KPWM 172251Z VRB04KT 10SM CLR M07/M16 A3025 RMK AO2 SLP245 T10721161 =
2017-12-17 16:51 METAR KPWM 172151Z 35011KT 10SM CLR M07/M16 A3024 RMK AO2 SLP241 T10671161 =
2017-12-17 15:51 METAR KPWM 172051Z 36006KT 10SM SCT250 M05/M15 A3021 RMK AO2 SLP232 T10501150
                 55000 =
2017-12-17 14:51 METAR KPWM 171951Z VRB05KT 10SM CLR M04/M15 A3019 RMK AO2 SLP224 T10391150 =
2017-12-17 13:51 METAR KPWM 171851Z VRB03KT 10SM SCT250 M04/M16 A3020 RMK AO2 SLP228 T10391161 =
2017-12-17 12:51 METAR KPWM 171751Z 31007KT 260V010 10SM SCT250 M04/M15 A3021 RMK AO2 SLP232
                 T10441150 11044 21150 56014 =
2017-12-17 11:51 METAR KPWM 171651Z VRB05KT 10SM CLR M05/M15 A3022 RMK AO2 SLP234 T10501150 =
2017-12-17 10:51 METAR KPWM 171551Z VRB04KT 10SM CLR M06/M14 A3023 RMK AO2 SLP238 T10561139 =
2017-12-17 09:51 METAR KPWM 171451Z 26004KT 10SM CLR M08/M13 A3025 RMK AO2 SLP246 T10831133 53005
                 =

Support USWX by starting your Amazon purchase here.